Time;durP1;ratioP1;P1;durP2;ratioP2;P2;SDS_P1;SDS_P2;PMS_P1;PMS_P2;Temp;Humidity;BMP_temperature;BMP_pressure;BME280_temperature;BME280_humidity;BME280_pressure;Samples;Min_cycle;Max_cycle;Signal;HPM_P1;HPM_P2
2022/04/05 00:00:33;;;;;;;30.80;20.73;;;10.00;99.90;;;;;;5075747;28;20255;-64
2022/04/05 00:03:00;;;;;;;26.70;20.43;;;10.10;99.90;;;;;;5076146;28;20228;-65
2022/04/05 00:05:26;;;;;;;26.93;19.67;;;10.10;99.90;;;;;;5076020;28;20203;-64
2022/04/05 00:07:51;;;;;;;32.83;21.13;;;10.10;99.90;;;;;;5075943;28;20172;-65
2022/04/05 00:10:17;;;;;;;34.67;21.83;;;10.10;99.90;;;;;;5075914;28;20243;-65
2022/04/05 00:12:43;;;;;;;34.03;21.80;;;10.10;99.90;;;;;;5075935;28;20179;-65
2022/04/05 00:15:10;;;;;;;31.53;21.63;;;10.10;99.90;;;;;;5075429;28;20172;-64
2022/04/05 00:17:37;;;;;;;32.67;21.70;;;10.10;99.90;;;;;;5075747;28;20177;-64
2022/04/05 00:20:04;;;;;;;34.57;21.87;;;10.20;99.90;;;;;;5075752;28;20180;-68
2022/04/05 00:22:30;;;;;;;30.83;20.40;;;10.20;99.90;;;;;;5075430;28;20172;-64
2022/04/05 00:24:56;;;;;;;32.33;21.20;;;10.30;99.90;;;;;;5075636;28;20187;-65
2022/04/05 00:27:21;;;;;;;29.80;20.47;;;10.30;99.90;;;;;;5075387;28;20183;-64
2022/04/05 00:29:47;;;;;;;31.37;20.43;;;10.30;99.90;;;;;;5074905;28;20243;-63
2022/04/05 00:32:13;;;;;;;33.83;20.70;;;10.30;99.90;;;;;;5075415;28;20179;-65
2022/04/05 00:34:40;;;;;;;33.07;21.07;;;10.30;99.90;;;;;;5075364;28;20176;-64
2022/04/05 00:37:06;;;;;;;32.83;20.73;;;10.30;99.90;;;;;;5075205;28;20515;-64
2022/04/05 00:39:32;;;;;;;26.67;19.53;;;10.40;99.90;;;;;;5075248;28;20188;-65
2022/04/05 00:41:58;;;;;;;33.10;20.57;;;10.40;99.90;;;;;;5075084;28;20183;-65
2022/04/05 00:44:24;;;;;;;35.60;20.37;;;10.40;99.90;;;;;;5074747;28;20241;-65
2022/04/05 00:46:52;;;;;;;33.10;21.00;;;10.40;99.90;;;;;;5075054;28;20256;-65
2022/04/05 00:49:29;;;;;;;32.97;21.67;;;10.40;99.90;;;;;;5074829;28;20211;-65
2022/04/05 00:51:55;;;;;;;30.57;21.00;;;10.50;99.90;;;;;;5074810;28;20176;-65
2022/04/05 00:54:23;;;;;;;29.83;21.27;;;10.50;99.90;;;;;;5074786;28;20278;-65
2022/04/05 00:56:52;;;;;;;28.40;20.23;;;10.50;99.90;;;;;;5074462;28;20228;-65
2022/04/05 00:59:19;;;;;;;34.57;21.97;;;10.50;99.90;;;;;;5075029;28;20192;-65
2022/04/05 01:01:46;;;;;;;33.23;21.27;;;10.60;99.90;;;;;;5075038;28;20179;-65
2022/04/05 01:04:12;;;;;;;35.37;20.63;;;10.50;99.90;;;;;;5074796;28;20181;-65
2022/04/05 01:06:44;;;;;;;29.27;20.37;;;10.60;99.90;;;;;;5074771;28;20507;-64
2022/04/05 01:09:11;;;;;;;33.73;20.43;;;10.60;99.90;;;;;;5074358;28;20647;-64
2022/04/05 01:11:37;;;;;;;32.70;20.97;;;10.60;99.90;;;;;;5074297;28;20173;-63
2022/04/05 01:14:04;;;;;;;27.73;19.40;;;10.60;99.90;;;;;;5074701;28;20191;-64
2022/04/05 01:16:31;;;;;;;32.77;20.57;;;10.60;99.90;;;;;;5074590;28;20643;-64
2022/04/05 01:18:57;;;;;;;35.43;20.27;;;10.70;99.90;;;;;;5074370;28;20164;-63
2022/04/05 01:21:22;;;;;;;26.70;19.80;;;10.60;99.90;;;;;;5074671;28;20642;-64
2022/04/05 01:24:08;;;;;;;26.00;17.60;;;10.60;99.90;;;;;;5074355;28;20188;-65
2022/04/05 01:26:47;;;;;;;32.70;19.70;;;10.70;99.90;;;;;;5074102;28;20183;-64
2022/04/05 01:29:14;;;;;;;29.67;20.13;;;10.70;99.90;;;;;;5073939;28;20200;-64
2022/04/05 01:31:45;;;;;;;30.17;19.57;;;10.70;99.90;;;;;;5074221;28;20176;-64
2022/04/05 01:34:16;;;;;;;32.17;19.87;;;10.70;99.90;;;;;;5074286;28;20168;-65
2022/04/05 01:36:43;;;;;;;32.50;19.83;;;10.80;99.90;;;;;;5074342;28;20173;-64
2022/04/05 01:39:13;;;;;;;32.87;20.40;;;10.80;99.90;;;;;;5073953;28;20177;-64
2022/04/05 01:41:39;;;;;;;34.50;19.90;;;10.80;99.90;;;;;;5073963;28;20524;-64
2022/04/05 01:44:06;;;;;;;37.20;21.80;;;10.80;99.90;;;;;;5074040;28;20180;-64
2022/04/05 01:46:32;;;;;;;32.90;20.97;;;10.80;99.90;;;;;;5074242;28;20183;-64
2022/04/05 01:48:58;;;;;;;40.33;21.07;;;10.70;99.90;;;;;;5073804;28;20552;-64
2022/04/05 01:51:23;;;;;;;34.63;20.27;;;10.80;99.90;;;;;;5073957;28;20204;-64
2022/04/05 01:53:49;;;;;;;32.33;20.13;;;10.70;99.90;;;;;;5073975;28;20333;-64
2022/04/05 01:56:15;;;;;;;32.17;20.77;;;10.80;99.90;;;;;;5073402;28;20216;-65
2022/04/05 01:58:40;;;;;;;33.53;20.57;;;10.70;99.90;;;;;;5073120;28;20551;-65
2022/04/05 02:01:06;;;;;;;27.87;19.70;;;10.80;99.90;;;;;;5073765;28;20168;-64
2022/04/05 02:03:32;;;;;;;29.40;19.63;;;10.70;99.90;;;;;;5073792;28;20255;-64
2022/04/05 02:05:58;;;;;;;29.63;19.90;;;10.70;99.90;;;;;;5073818;28;20575;-64
2022/04/05 02:08:24;;;;;;;31.50;20.30;;;10.70;99.90;;;;;;5073438;28;20168;-64
2022/04/05 02:10:49;;;;;;;34.83;19.70;;;10.80;99.90;;;;;;5073101;28;20285;-65
2022/04/05 02:13:15;;;;;;;37.90;20.83;;;10.80;99.90;;;;;;5073767;28;20192;-64
2022/04/05 02:15:41;;;;;;;32.90;20.30;;;10.90;99.90;;;;;;5073571;28;20242;-64
2022/04/05 02:18:06;;;;;;;28.77;19.00;;;10.80;99.90;;;;;;5073451;28;20161;-64
2022/04/05 02:20:32;;;;;;;35.17;19.93;;;10.90;99.90;;;;;;5073473;28;20172;-64
2022/04/05 02:22:58;;;;;;;32.50;19.80;;;10.90;99.90;;;;;;5073369;28;20218;-64
2022/04/05 02:25:24;;;;;;;28.33;18.40;;;10.90;99.90;;;;;;5072971;28;20168;-62
2022/04/05 02:27:49;;;;;;;30.07;19.20;;;11.00;99.90;;;;;;5073522;28;20705;-64
2022/04/05 02:30:15;;;;;;;30.70;19.20;;;11.00;99.90;;;;;;5073367;28;20227;-64
2022/04/05 02:32:41;;;;;;;33.10;18.27;;;11.00;99.90;;;;;;5073440;28;20603;-64
2022/04/05 02:35:08;;;;;;;27.97;17.97;;;11.00;99.90;;;;;;5073331;28;20521;-65
2022/04/05 02:37:34;;;;;;;30.30;17.97;;;11.10;99.90;;;;;;5072891;28;20657;-65
2022/04/05 02:39:59;;;;;;;32.63;18.20;;;11.10;99.90;;;;;;5072746;28;20173;-65
2022/04/05 02:42:25;;;;;;;28.63;17.67;;;11.00;99.90;;;;;;5073374;28;20173;-65
2022/04/05 02:44:51;;;;;;;25.57;16.53;;;11.10;99.90;;;;;;5073344;28;20226;-65
2022/04/05 02:47:16;;;;;;;26.67;17.33;;;11.10;99.90;;;;;;5073079;28;20200;-65
2022/04/05 02:49:42;;;;;;;23.63;15.50;;;11.10;99.90;;;;;;5073022;28;20194;-65
2022/04/05 02:52:07;;;;;;;21.87;15.70;;;11.00;99.90;;;;;;5072994;28;20520;-64
2022/04/05 02:54:33;;;;;;;29.87;17.70;;;11.10;99.90;;;;;;5072486;28;20167;-65
2022/04/05 02:56:59;;;;;;;24.43;16.20;;;11.20;99.90;;;;;;5072795;28;20224;-65
2022/04/05 02:59:25;;;;;;;25.63;16.50;;;11.20;99.90;;;;;;5072909;28;20625;-66
2022/04/05 03:01:51;;;;;;;29.07;16.33;;;11.20;99.90;;;;;;5073067;28;20176;-66
2022/04/05 03:04:16;;;;;;;23.23;16.73;;;11.20;99.90;;;;;;5073048;28;20184;-66
2022/04/05 03:06:42;;;;;;;25.13;16.40;;;11.30;99.90;;;;;;5072857;28;20254;-66
2022/04/05 03:09:08;;;;;;;28.20;17.00;;;11.20;99.90;;;;;;5073660;28;20183;-65
2022/04/05 03:11:33;;;;;;;30.80;17.47;;;11.20;99.90;;;;;;5076803;28;20293;-64
2022/04/05 03:13:59;;;;;;;29.00;17.43;;;11.20;99.90;;;;;;5076805;28;20179;-66
2022/04/05 03:16:25;;;;;;;23.63;16.57;;;11.20;99.90;;;;;;5076869;28;20255;-64
2022/04/05 03:18:51;;;;;;;25.60;17.60;;;11.20;99.90;;;;;;5076728;28;20165;-65
2022/04/05 03:21:17;;;;;;;27.40;16.70;;;11.20;99.90;;;;;;5076429;28;20234;-64
2022/04/05 03:23:42;;;;;;;22.40;16.30;;;11.20;99.90;;;;;;5076242;28;20168;-65
2022/04/05 03:26:08;;;;;;;29.57;17.60;;;11.20;99.90;;;;;;5076628;28;20187;-64
2022/04/05 03:28:34;;;;;;;26.63;17.13;;;11.20;99.90;;;;;;5076540;28;20539;-63
2022/04/05 03:31:00;;;;;;;26.90;16.77;;;11.30;99.90;;;;;;5076103;28;20259;-64
2022/04/05 03:33:25;;;;;;;27.60;17.63;;;11.30;99.90;;;;;;5076689;28;20643;-64
2022/04/05 03:35:54;;;;;;;31.40;16.90;;;11.30;99.90;;;;;;5076430;28;20639;-65
2022/04/05 03:38:20;;;;;;;31.53;17.27;;;11.30;99.90;;;;;;5075987;28;20169;-65
2022/04/05 03:40:46;;;;;;;26.37;16.53;;;11.30;99.90;;;;;;5075928;28;20180;-64
2022/04/05 03:43:12;;;;;;;29.60;16.87;;;11.30;99.90;;;;;;5076318;28;20172;-65
2022/04/05 03:45:39;;;;;;;24.83;17.07;;;11.30;99.90;;;;;;5076328;28;20171;-66
2022/04/05 03:48:05;;;;;;;28.03;15.90;;;11.20;99.90;;;;;;5076207;28;20682;-64
2022/04/05 03:50:31;;;;;;;22.27;16.80;;;11.30;99.90;;;;;;5075744;28;20217;-65
2022/04/05 03:52:59;;;;;;;30.40;18.17;;;11.30;99.90;;;;;;5075700;28;20168;-66
2022/04/05 03:55:25;;;;;;;27.50;17.13;;;11.30;99.90;;;;;;5075657;28;20231;-65
2022/04/05 03:57:51;;;;;;;29.43;17.57;;;11.30;99.90;;;;;;5075625;28;20173;-65
2022/04/05 04:00:17;;;;;;;27.00;16.07;;;11.20;99.90;;;;;;5076112;28;20672;-64
2022/04/05 04:02:43;;;;;;;26.83;16.93;;;11.20;99.90;;;;;;5075969;28;20255;-65
2022/04/05 04:05:09;;;;;;;25.03;16.17;;;11.20;99.90;;;;;;5075418;28;20200;-65
2022/04/05 04:07:39;;;;;;;25.70;17.20;;;11.20;99.90;;;;;;5075463;28;20529;-65
2022/04/05 04:10:06;;;;;;;30.03;17.23;;;11.30;99.90;;;;;;5075336;28;20204;-64
2022/04/05 04:12:32;;;;;;;23.90;15.90;;;11.30;99.90;;;;;;5075541;28;20180;-65
2022/04/05 04:14:58;;;;;;;23.73;15.53;;;11.30;99.90;;;;;;5075657;28;20180;-64
2022/04/05 04:17:25;;;;;;;25.77;16.97;;;11.30;99.90;;;;;;5075704;28;20171;-65
2022/04/05 04:19:51;;;;;;;27.10;17.17;;;11.30;99.90;;;;;;5075074;28;20180;-63
2022/04/05 04:22:16;;;;;;;24.90;16.13;;;11.30;99.90;;;;;;5074529;28;20241;-64
2022/04/05 04:24:42;;;;;;;24.97;15.40;;;11.30;99.90;;;;;;5075605;28;20215;-65
2022/04/05 04:27:07;;;;;;;29.07;16.73;;;11.30;99.90;;;;;;5075532;28;20570;-65
2022/04/05 04:29:34;;;;;;;24.67;15.10;;;11.30;99.90;;;;;;5075079;28;20261;-64
2022/04/05 04:31:59;;;;;;;24.80;15.97;;;11.30;99.90;;;;;;5074901;28;20180;-64
2022/04/05 04:34:25;;;;;;;24.50;15.17;;;11.30;99.90;;;;;;5074786;28;20534;-64
2022/04/05 04:36:50;;;;;;;23.33;16.10;;;11.30;99.90;;;;;;5075325;28;20301;-65
2022/04/05 04:39:17;;;;;;;20.03;15.97;;;11.30;99.90;;;;;;5074617;28;20536;-65
2022/04/05 04:41:44;;;;;;;23.70;15.73;;;11.30;99.90;;;;;;5074954;28;20700;-63
2022/04/05 04:44:10;;;;;;;26.73;16.00;;;11.30;99.90;;;;;;5075221;28;20180;-64
2022/04/05 04:46:36;;;;;;;22.23;16.17;;;11.30;99.90;;;;;;5074953;28;20239;-65
2022/04/05 04:49:01;;;;;;;23.20;15.57;;;11.30;99.90;;;;;;5074462;28;20192;-64
2022/04/05 04:51:27;;;;;;;21.00;14.70;;;11.30;99.90;;;;;;5074290;28;20299;-65
2022/04/05 04:53:53;;;;;;;20.93;15.93;;;11.30;99.90;;;;;;5074789;28;20581;-64
2022/04/05 04:56:18;;;;;;;25.23;16.70;;;11.30;99.90;;;;;;5074366;28;20230;-64
2022/04/05 04:58:44;;;;;;;25.03;16.33;;;11.20;99.90;;;;;;5074902;28;20533;-64
2022/04/05 05:01:10;;;;;;;25.33;16.53;;;11.20;99.90;;;;;;5074221;28;20168;-64
2022/04/05 05:03:36;;;;;;;21.80;15.43;;;11.20;99.90;;;;;;5073869;28;20168;-65
2022/04/05 05:06:03;;;;;;;19.63;15.77;;;11.20;99.90;;;;;;5074555;28;20529;-65
2022/04/05 05:08:29;;;;;;;20.73;15.70;;;11.20;99.90;;;;;;5074357;28;20160;-64
2022/04/05 05:10:54;;;;;;;22.33;16.03;;;11.20;99.90;;;;;;5073823;28;20230;-65
2022/04/05 05:13:20;;;;;;;21.67;16.47;;;11.20;99.90;;;;;;5074068;28;20607;-65
2022/04/05 05:15:47;;;;;;;23.53;17.37;;;11.30;99.90;;;;;;5074371;28;20177;-65
2022/04/05 05:18:12;;;;;;;21.77;17.03;;;11.30;99.90;;;;;;5073512;28;20180;-65
2022/04/05 05:20:38;;;;;;;24.93;17.23;;;11.20;99.90;;;;;;5073398;28;20565;-65
2022/04/05 05:23:04;;;;;;;20.33;16.23;;;11.30;99.90;;;;;;5074276;28;20182;-65
2022/04/05 05:25:30;;;;;;;23.73;15.17;;;11.20;99.90;;;;;;5073690;28;20327;-64
2022/04/05 05:27:55;;;;;;;21.83;15.63;;;11.30;99.90;;;;;;5073787;28;20196;-64
2022/04/05 05:30:22;;;;;;;19.00;15.83;;;11.20;99.90;;;;;;5073531;28;20205;-64
2022/04/05 05:32:49;;;;;;;21.53;15.70;;;11.30;99.90;;;;;;5072545;28;20243;-64
2022/04/05 05:35:16;;;;;;;19.23;15.03;;;11.30;99.90;;;;;;5073658;28;20164;-64
2022/04/05 05:37:42;;;;;;;22.87;15.83;;;11.30;99.90;;;;;;5073618;28;20261;-65
2022/04/05 05:40:08;;;;;;;23.03;15.87;;;11.40;99.90;;;;;;5073433;28;20173;-65
2022/04/05 05:42:34;;;;;;;21.27;16.10;;;11.40;99.90;;;;;;5073078;28;20648;-65
2022/04/05 05:45:00;;;;;;;19.07;14.63;;;11.40;99.90;;;;;;5073287;28;20193;-66
2022/04/05 05:47:26;;;;;;;19.40;15.17;;;11.40;99.90;;;;;;5072934;28;20208;-65
2022/04/05 05:49:52;;;;;;;18.40;13.90;;;11.40;99.90;;;;;;5072584;28;20203;-64
2022/04/05 05:52:17;;;;;;;17.87;14.57;;;11.40;99.90;;;;;;5073030;28;20207;-65
2022/04/05 05:54:43;;;;;;;19.43;14.37;;;11.40;99.90;;;;;;5072699;28;20243;-64
2022/04/05 05:57:08;;;;;;;24.87;15.67;;;11.40;99.90;;;;;;5072857;28;20195;-65
2022/04/05 05:59:34;;;;;;;20.63;14.80;;;11.50;99.90;;;;;;5072760;28;20197;-65
2022/04/05 06:02:00;;;;;;;17.17;14.30;;;11.50;99.90;;;;;;5072624;28;20659;-64
2022/04/05 06:04:26;;;;;;;19.80;14.73;;;11.60;99.90;;;;;;5072931;28;20282;-66
2022/04/05 06:06:51;;;;;;;17.87;14.00;;;11.60;99.90;;;;;;5072956;28;20181;-64
2022/04/05 06:09:17;;;;;;;16.17;13.73;;;11.60;99.90;;;;;;5072302;28;20164;-64
2022/04/05 06:11:42;;;;;;;16.30;13.67;;;11.50;99.90;;;;;;5072926;28;20226;-65
2022/04/05 06:14:08;;;;;;;22.53;14.97;;;11.60;99.90;;;;;;5072714;28;20214;-64
2022/04/05 06:16:33;;;;;;;19.63;13.27;;;11.60;99.90;;;;;;5071626;28;20173;-64
2022/04/05 06:18:59;;;;;;;20.20;13.87;;;11.60;99.90;;;;;;5072310;28;20169;-64
2022/04/05 06:21:24;;;;;;;15.57;13.07;;;11.60;99.90;;;;;;5072409;28;20169;-64
2022/04/05 06:23:52;;;;;;;17.33;13.33;;;11.60;99.90;;;;;;5072865;28;20259;-65
2022/04/05 06:26:17;;;;;;;19.87;13.53;;;11.60;99.90;;;;;;5072557;28;20169;-64
2022/04/05 06:28:43;;;;;;;18.73;13.33;;;11.50;99.90;;;;;;5072054;28;20241;-64
2022/04/05 06:31:09;;;;;;;19.37;14.33;;;11.50;99.90;;;;;;5071628;28;20224;-65
2022/04/05 06:33:35;;;;;;;17.53;14.27;;;11.50;99.90;;;;;;5072381;28;20176;-64
2022/04/05 06:36:01;;;;;;;19.03;13.70;;;11.50;99.90;;;;;;5072165;28;20168;-64
2022/04/05 06:38:28;;;;;;;21.03;14.50;;;11.50;99.90;;;;;;5072628;28;20214;-64
2022/04/05 06:40:54;;;;;;;17.17;13.57;;;11.50;99.90;;;;;;5071368;28;20728;-65
2022/04/05 06:43:24;;;;;;;16.50;13.80;;;11.50;99.90;;;;;;5069618;28;20176;-66
2022/04/05 06:45:51;;;;;;;15.97;13.67;;;11.60;99.90;;;;;;5071218;28;20662;-65
2022/04/05 06:48:17;;;;;;;16.90;13.80;;;11.70;99.90;;;;;;5058447;28;20204;-65
2022/04/05 06:50:43;;;;;;;19.50;13.93;;;11.80;99.90;;;;;;5072327;28;20657;-65
2022/04/05 06:53:10;;;;;;;15.70;13.30;;;11.80;99.90;;;;;;5055213;28;20282;-64
2022/04/05 06:55:36;;;;;;;17.93;13.53;;;11.80;99.90;;;;;;5056064;28;20269;-64
2022/04/05 06:58:02;;;;;;;16.93;13.70;;;11.80;99.90;;;;;;5067465;28;20266;-65
2022/04/05 07:00:28;;;;;;;18.50;13.33;;;11.90;99.90;;;;;;5073364;28;20183;-64
2022/04/05 07:02:55;;;;;;;14.53;12.93;;;11.90;99.90;;;;;;5061479;28;20325;-64
2022/04/05 07:05:21;;;;;;;15.80;13.60;;;12.00;99.90;;;;;;5080793;28;20183;-65
2022/04/05 07:07:47;;;;;;;16.53;12.87;;;12.00;99.90;;;;;;5068094;28;20183;-64
2022/04/05 07:10:15;;;;;;;14.80;12.57;;;12.10;99.90;;;;;;5059849;28;20302;-65
2022/04/05 07:12:41;;;;;;;15.63;12.90;;;12.20;99.90;;;;;;5059966;28;20177;-65
2022/04/05 07:15:10;;;;;;;14.40;12.90;;;12.20;99.90;;;;;;5062211;28;20184;-64
2022/04/05 07:17:36;;;;;;;14.63;12.80;;;12.40;99.90;;;;;;5083937;28;20255;-65
2022/04/05 07:20:01;;;;;;;15.70;12.27;;;12.40;99.90;;;;;;5075942;28;20271;-66
2022/04/05 07:22:27;;;;;;;14.23;11.97;;;12.30;99.90;;;;;;5055753;28;20185;-65
2022/04/05 07:24:53;;;;;;;13.63;12.27;;;12.20;99.90;;;;;;5056522;28;20189;-65
2022/04/05 07:27:18;;;;;;;14.13;12.67;;;12.30;99.90;;;;;;5083786;28;20180;-66
2022/04/05 07:29:44;;;;;;;15.60;12.30;;;12.20;99.90;;;;;;5072122;28;20184;-65
2022/04/05 07:32:10;;;;;;;13.60;12.13;;;12.30;99.90;;;;;;5050775;28;20605;-65
2022/04/05 07:34:35;;;;;;;13.67;11.83;;;12.20;99.90;;;;;;5056209;28;20226;-65
2022/04/05 07:37:01;;;;;;;12.97;11.73;;;12.30;99.90;;;;;;5069451;28;20172;-64
2022/04/05 07:39:26;;;;;;;14.53;11.57;;;12.30;99.90;;;;;;5063914;28;20238;-64
2022/04/05 07:41:53;;;;;;;13.47;11.67;;;12.50;99.90;;;;;;5062971;28;20191;-65
2022/04/05 07:44:18;;;;;;;12.93;11.73;;;12.50;99.90;;;;;;5061412;28;20208;-66
2022/04/05 07:46:45;;;;;;;12.43;11.27;;;12.50;99.90;;;;;;5063592;28;20220;-63
2022/04/05 07:49:11;;;;;;;12.53;11.30;;;12.40;99.90;;;;;;5065909;28;20263;-65
2022/04/05 07:51:37;;;;;;;13.80;11.73;;;12.50;99.90;;;;;;5062527;28;20295;-65
2022/04/05 07:54:05;;;;;;;13.30;11.93;;;12.60;99.90;;;;;;5064695;28;20271;-65
2022/04/05 07:56:30;;;;;;;11.73;10.60;;;12.70;99.90;;;;;;5062150;28;20301;-65
2022/04/05 07:58:56;;;;;;;12.00;10.90;;;12.70;99.90;;;;;;5074634;28;20176;-64
2022/04/05 08:01:23;;;;;;;12.70;11.03;;;12.70;99.90;;;;;;5074524;28;20229;-64
2022/04/05 08:03:48;;;;;;;14.33;11.97;;;12.70;99.90;;;;;;5054994;28;20181;-64
2022/04/05 08:06:14;;;;;;;15.90;11.43;;;12.90;99.90;;;;;;5060101;28;20181;-64
2022/04/05 08:08:40;;;;;;;13.03;11.60;;;12.80;99.90;;;;;;5073503;28;20177;-65
2022/04/05 08:11:05;;;;;;;13.27;11.97;;;12.80;99.90;;;;;;5072734;28;20257;-64
2022/04/05 08:13:31;;;;;;;12.93;11.67;;;12.80;99.90;;;;;;5071906;28;20177;-63
2022/04/05 08:15:56;;;;;;;13.60;12.20;;;12.70;99.90;;;;;;5070981;28;20199;-65
2022/04/05 08:18:22;;;;;;;12.43;11.23;;;12.70;99.90;;;;;;5062432;28;20634;-65
2022/04/05 08:20:49;;;;;;;11.90;10.70;;;12.70;99.90;;;;;;5073459;28;20203;-65
2022/04/05 08:23:15;;;;;;;13.30;11.30;;;12.70;99.90;;;;;;5067451;28;20184;-65
2022/04/05 08:25:41;;;;;;;11.43;10.10;;;12.70;99.90;;;;;;5064559;28;20185;-65
2022/04/05 08:28:06;;;;;;;11.57;10.47;;;12.50;99.90;;;;;;5059006;28;20181;-65
2022/04/05 08:30:33;;;;;;;14.00;10.73;;;12.50;99.90;;;;;;5073058;28;20220;-65
2022/04/05 08:32:58;;;;;;;10.77;9.67;;;12.70;99.90;;;;;;5069680;28;20196;-66
2022/04/05 08:35:25;;;;;;;10.80;9.80;;;12.70;99.90;;;;;;5069544;28;20266;-65
2022/04/05 08:37:54;;;;;;;11.17;9.27;;;12.70;99.90;;;;;;5073835;28;20180;-64
2022/04/05 08:40:21;;;;;;;10.50;9.50;;;12.70;99.90;;;;;;5075315;28;20199;-65
2022/04/05 08:42:50;;;;;;;10.00;9.00;;;12.80;99.90;;;;;;5063976;28;20185;-66
2022/04/05 08:45:17;;;;;;;10.27;9.20;;;13.00;99.90;;;;;;5065136;28;20176;-64
2022/04/05 08:47:52;;;;;;;9.33;8.40;;;12.80;99.90;;;;;;5060869;28;20668;-66
2022/04/05 08:50:26;;;;;;;9.77;8.60;;;12.90;99.90;;;;;;5058480;28;20729;-65
2022/04/05 08:52:56;;;;;;;9.77;8.97;;;13.00;99.90;;;;;;5054952;28;20256;-65
2022/04/05 08:55:22;;;;;;;9.63;8.70;;;13.10;99.90;;;;;;5068587;28;20308;-67
2022/04/05 08:57:49;;;;;;;10.30;9.20;;;13.10;99.90;;;;;;5076794;28;20211;-66
2022/04/05 09:00:19;;;;;;;9.77;8.97;;;13.00;99.90;;;;;;5076210;28;20208;-65
2022/04/05 09:02:56;;;;;;;10.40;9.37;;;13.10;99.90;;;;;;5076973;28;20705;-66
2022/04/05 09:05:27;;;;;;;9.83;8.73;;;13.20;99.90;;;;;;5069846;28;20184;-65
2022/04/05 09:07:52;;;;;;;9.90;8.90;;;13.20;99.90;;;;;;5063192;28;20176;-65
2022/04/05 09:10:19;;;;;;;11.67;9.40;;;13.20;99.90;;;;;;5067146;28;20308;-66
2022/04/05 09:12:46;;;;;;;9.47;8.57;;;13.20;99.90;;;;;;5060071;28;20488;-65
2022/04/05 09:15:20;;;;;;;11.63;10.40;;;13.10;99.90;;;;;;5069867;28;20566;-65
2022/04/05 09:17:47;;;;;;;67.43;48.90;;;13.20;99.90;;;;;;5066355;28;20256;-65
2022/04/05 09:20:15;;;;;;;13.27;11.90;;;13.20;99.90;;;;;;5064860;28;20656;-65
2022/04/05 09:22:41;;;;;;;12.70;11.50;;;13.30;99.90;;;;;;5072780;28;20640;-65
2022/04/05 09:25:15;;;;;;;10.60;9.50;;;13.30;99.90;;;;;;5076878;28;20187;-65
2022/04/05 09:27:58;;;;;;;10.80;9.27;;;13.20;99.90;;;;;;5071980;28;20591;-64
2022/04/05 09:30:29;;;;;;;10.40;9.37;;;12.90;99.90;;;;;;5072993;28;20204;-65
2022/04/05 09:32:55;;;;;;;10.83;9.50;;;12.90;99.90;;;;;;5072459;28;20173;-64
2022/04/05 09:35:27;;;;;;;9.93;8.93;;;13.10;99.90;;;;;;5059682;28;20180;-66
2022/04/05 09:38:08;;;;;;;11.90;10.87;;;13.10;99.90;;;;;;5059934;28;20190;-66
2022/04/05 09:40:35;;;;;;;9.33;8.53;;;13.10;99.90;;;;;;5061270;28;20173;-65
2022/04/05 09:43:14;;;;;;;10.40;9.50;;;13.20;99.90;;;;;;5063263;28;20199;-65
2022/04/05 09:45:46;;;;;;;10.13;8.90;;;13.20;99.90;;;;;;5061039;28;20199;-66
2022/04/05 09:48:13;;;;;;;9.83;8.10;;;13.40;99.90;;;;;;5070183;28;20271;-66
2022/04/05 09:51:09;;;;;;;9.33;8.40;;;13.60;99.90;;;;;;5071880;28;20212;-66
2022/04/05 09:53:46;;;;;;;9.13;8.30;;;13.80;99.90;;;;;;5063844;28;20185;-65
2022/04/05 09:56:22;;;;;;;8.90;8.00;;;14.10;99.90;;;;;;5067550;28;20293;-66
2022/04/05 09:59:04;;;;;;;11.17;8.97;;;14.40;99.90;;;;;;5070836;28;20260;-66
2022/04/05 10:01:32;;;;;;;9.47;8.50;;;14.60;99.90;;;;;;5058538;28;20187;-65
2022/04/05 10:04:08;;;;;;;8.83;7.93;;;14.70;99.90;;;;;;5067099;28;20185;-65
2022/04/05 10:06:38;;;;;;;8.27;7.40;;;14.80;99.90;;;;;;5070107;28;20632;-65
2022/04/05 10:09:04;;;;;;;8.43;7.60;;;14.50;99.90;;;;;;5072329;28;20188;-64
2022/04/05 10:11:32;;;;;;;8.33;7.63;;;14.40;99.90;;;;;;5067010;28;20215;-65
2022/04/05 10:13:59;;;;;;;8.57;7.70;;;14.20;99.90;;;;;;5054271;28;20185;-65
2022/04/05 10:16:28;;;;;;;9.07;8.03;;;13.90;99.90;;;;;;5054439;28;20644;-66
2022/04/05 10:18:58;;;;;;;8.20;7.40;;;13.80;99.90;;;;;;5058093;28;20188;-65
2022/04/05 10:21:29;;;;;;;8.60;7.90;;;13.70;99.90;;;;;;5062017;28;20189;-65
2022/04/05 10:23:57;;;;;;;7.73;7.13;;;13.70;99.90;;;;;;5059567;28;20211;-65
2022/04/05 10:26:27;;;;;;;8.23;7.53;;;13.50;99.90;;;;;;5061469;28;20632;-64
2022/04/05 10:28:56;;;;;;;7.87;7.17;;;13.70;99.90;;;;;;5059925;28;20184;-65
2022/04/05 10:31:36;;;;;;;7.63;6.93;;;13.70;99.90;;;;;;5053438;28;20223;-65
2022/04/05 10:34:27;;;;;;;7.63;7.03;;;13.90;99.90;;;;;;5055225;28;20238;-65
2022/04/05 10:37:18;;;;;;;8.03;7.30;;;14.10;99.90;;;;;;5059021;28;21241;-65
2022/04/05 10:40:10;;;;;;;7.70;7.10;;;14.20;99.90;;;;;;5057806;28;20181;-64
2022/04/05 10:42:54;;;;;;;12.27;11.07;;;14.40;99.90;;;;;;5058117;28;20305;-64
2022/04/05 10:45:28;;;;;;;7.80;6.67;;;14.50;99.90;;;;;;5052608;28;20212;-65
2022/04/05 10:48:10;;;;;;;7.80;7.00;;;14.60;99.90;;;;;;5062015;28;20659;-64
2022/04/05 10:50:35;;;;;;;7.30;6.70;;;14.70;99.90;;;;;;5087014;28;20200;-64
2022/04/05 10:53:17;;;;;;;6.90;6.20;;;14.70;99.90;;;;;;5072618;28;20171;-67
2022/04/05 10:56:05;;;;;;;6.87;6.37;;;14.70;99.90;;;;;;5079646;28;20215;-64
2022/04/05 10:58:35;;;;;;;6.90;6.37;;;14.90;99.90;;;;;;5092088;28;20192;-67
2022/04/05 11:01:19;;;;;;;7.73;7.13;;;14.70;99.90;;;;;;5074157;28;20176;-67
2022/04/05 11:04:09;;;;;;;6.70;6.20;;;14.80;99.90;;;;;;5083832;28;20199;-66
2022/04/05 11:07:05;;;;;;;7.93;7.27;;;14.60;99.90;;;;;;5086218;28;20182;-66
2022/04/05 11:09:43;;;;;;;7.00;6.50;;;14.60;99.90;;;;;;5059388;28;20165;-64
2022/04/05 11:12:16;;;;;;;7.43;6.83;;;14.50;99.90;;;;;;5062965;28;20258;-65
2022/04/05 11:14:50;;;;;;;6.23;5.83;;;14.40;99.90;;;;;;5051557;28;20185;-65
2022/04/05 11:17:18;;;;;;;7.70;7.00;;;14.20;99.90;;;;;;5069084;28;20249;-65
2022/04/05 11:19:47;;;;;;;7.80;7.10;;;14.20;99.90;;;;;;5065417;28;20177;-65
2022/04/05 11:22:22;;;;;;;7.47;6.77;;;14.20;99.90;;;;;;5075147;28;20646;-66
2022/04/05 11:25:09;;;;;;;7.50;7.00;;;14.30;99.90;;;;;;5077905;28;20176;-64
2022/04/05 11:27:46;;;;;;;8.10;7.43;;;14.50;99.90;;;;;;5057566;28;20203;-65
2022/04/05 11:30:27;;;;;;;9.87;8.97;;;14.60;99.90;;;;;;5078556;28;20571;-66
2022/04/05 11:33:16;;;;;;;23.40;21.00;;;14.60;99.90;;;;;;5058975;28;20293;-66
2022/04/05 11:35:43;;;;;;;6.67;6.17;;;15.00;99.90;;;;;;5073362;28;20220;-65
2022/04/05 11:38:30;;;;;;;5.87;5.47;;;15.10;99.90;;;;;;5076746;28;20176;-66
2022/04/05 11:40:58;;;;;;;6.23;5.73;;;15.40;99.90;;;;;;5084529;28;20355;-65
2022/04/05 11:43:28;;;;;;;9.93;9.13;;;15.50;99.90;;;;;;5090478;28;20167;-64
2022/04/05 11:45:56;;;;;;;7.07;6.40;;;15.80;99.90;;;;;;5064740;28;20188;-64
2022/04/05 11:48:23;;;;;;;7.00;6.27;;;15.80;99.90;;;;;;5078386;28;20274;-63
2022/04/05 11:50:50;;;;;;;5.83;5.43;;;15.70;99.90;;;;;;5066778;28;20703;-64
2022/04/05 11:53:27;;;;;;;5.40;5.00;;;15.80;99.90;;;;;;5068332;28;20172;-64
2022/04/05 11:56:16;;;;;;;7.00;6.50;;;15.80;99.90;;;;;;5064366;28;20753;-64
2022/04/05 11:58:46;;;;;;;9.67;8.90;;;15.80;99.90;;;;;;5069583;28;20172;-66
2022/04/05 12:01:13;;;;;;;5.87;5.37;;;15.90;99.90;;;;;;5072532;28;20209;-65
2022/04/05 12:03:44;;;;;;;5.73;5.43;;;16.00;99.90;;;;;;5067448;28;20190;-64
2022/04/05 12:06:11;;;;;;;6.00;5.50;;;15.90;99.90;;;;;;5074935;28;20174;-65
2022/04/05 12:08:36;;;;;;;7.57;6.83;;;16.00;99.90;;;;;;5079371;28;20183;-65
2022/04/05 12:11:04;;;;;;;5.23;4.73;;;15.80;99.90;;;;;;5064224;28;20729;-64
2022/04/05 12:13:31;;;;;;;5.07;4.77;;;16.00;99.90;;;;;;5066565;28;20176;-64
2022/04/05 12:16:01;;;;;;;5.50;5.20;;;15.90;99.90;;;;;;5066781;28;20193;-65
2022/04/05 12:18:28;;;;;;;5.70;5.20;;;15.90;99.90;;;;;;5058956;28;20267;-66
2022/04/05 12:21:11;;;;;;;5.57;5.13;;;16.00;99.90;;;;;;5060159;28;20211;-66
2022/04/05 12:23:39;;;;;;;5.47;5.07;;;16.30;99.90;;;;;;5066156;28;20205;-65
2022/04/05 12:26:16;;;;;;;5.20;4.90;;;15.80;99.90;;;;;;5057691;28;20578;-65
2022/04/05 12:28:41;;;;;;;29.17;20.83;;;15.80;99.90;;;;;;5058945;28;20181;-63
2022/04/05 12:31:12;;;;;;;5.60;5.20;;;15.60;99.90;;;;;;5067827;28;20205;-65
2022/04/05 12:33:42;;;;;;;6.70;6.13;;;15.40;99.90;;;;;;5056398;28;20165;-64
2022/04/05 12:36:08;;;;;;;5.30;5.00;;;15.30;99.90;;;;;;5060695;28;20546;-64
2022/04/05 12:38:34;;;;;;;5.40;5.10;;;15.00;99.90;;;;;;5078466;28;20178;-65